Bookmark and Share
Track history (hours):
 

Sedov (Russia)

Last reported at 2014-Apr-16 21:26 UTC. Time now 2014-Apr-17 03:56 UTC.
Position N 43°24' E 003°42'.

Length 118 m; draft 6.5 m.

Type: Sailing vessel. MMSI: 273510000.

NotesDate/timePositionNaut miles runAvg speedWind from/ knotsBaromVisibWave heightAir tempDewpointWater temp
2014-Apr-16 21:26N 43°24' E 003°42'0 0.0
2014-Apr-16 20:14N 43°24' E 003°42'0 0.0
2014-Apr-16 17:17N 43°24' E 003°42'0 0.0
2014-Apr-16 16:26N 43°24' E 003°42'0 0.0
2014-Apr-16 10:15N 43°24' E 003°42'0 0.0
2014-Apr-16 00:07N 43°24' E 003°42'0 0.0
2014-Apr-15 23:16N 43°24' E 003°42'0 0.0
2014-Apr-15 16:22N 43°24' E 003°42'0 0.0
2014-Apr-15 08:34N 43°24' E 003°42'4 1.9
2014-Apr-15 06:31N 43°21' E 003°45'25 4.3
2014-Apr-15 00:34N 43°01' E 004°07'7 7.2
2014-Apr-14 23:34N 42°56' E 004°14'4 3.6
2014-Apr-14 22:33N 42°53' E 004°18'1 0.4
2014-Apr-14 20:34N 42°54' E 004°17'1 1.0
2014-Apr-14 19:33N 42°53' E 004°16'1 1.3
2014-Apr-14 18:33N 42°52' E 004°14'3 1.5
2014-Apr-14 16:31N 42°50' E 004°12'3 2.9
2014-Apr-14 15:34N 42°47' E 004°13'1 0.8
2014-Apr-14 14:33N 42°47' E 004°12'0 0.4
2014-Apr-14 13:33N 42°47' E 004°12'11 5.6
2014-Apr-14 11:33N 42°38' E 004°21'9 8.7
2014-Apr-14 10:33N 42°31' E 004°27'7 7.2
2014-Apr-14 09:33N 42°25' E 004°33'1 0.6
2014-Apr-14 08:31N 42°24' E 004°34'2 1.2
2014-Apr-14 06:32N 42°27' E 004°33'1 1.3
2014-Apr-14 05:30N 42°28' E 004°33'55 7.4
2014-Apr-13 22:09N 41°42' E 003°55'610.0
2014-Apr-13 21:33N 41°36' E 003°51'9 9.4
2014-Apr-13 20:33N 41°28' E 003°44'12 8.3
2014-Apr-13 19:09N 41°18' E 003°37'0 0.5
2014-Apr-13 18:26N 41°18' E 003°36'0 0.3
2014-Apr-13 17:33N 41°18' E 003°36'1 0.5
2014-Apr-13 16:33N 41°18' E 003°35'0 0.5
2014-Apr-13 15:33N 41°19' E 003°35'1 0.6
2014-Apr-13 14:33N 41°19' E 003°34'1 0.6
2014-Apr-13 13:03N 41°20' E 003°34'0 0.5
2014-Apr-13 12:33N 41°20' E 003°33'0 0.3
2014-Apr-13 11:33N 41°20' E 003°33'0 0.4
2014-Apr-13 10:33N 41°20' E 003°33'0 0.4
2014-Apr-13 09:33N 41°21' E 003°33'0 0.4
2014-Apr-13 08:30N 41°21' E 003°32'1 0.4
2014-Apr-13 06:24N 41°22' E 003°32'1 0.4
2014-Apr-13 03:33N 41°23' E 003°32'0 0.4
2014-Apr-13 02:33N 41°23' E 003°32'0 0.4
2014-Apr-13 01:33N 41°24' E 003°31'0 0.3
2014-Apr-13 00:33N 41°24' E 003°31'0 0.3
2014-Apr-12 23:33N 41°24' E 003°31'3 1.6
2014-Apr-12 21:32N 41°24' E 003°27'9 8.8
2014-Apr-12 20:33N 41°22' E 003°15'9 9.2
2014-Apr-12 19:33N 41°16' E 003°07'13 8.9
2014-Apr-12 18:05N 41°05' E 002°56'5 9.6
2014-Apr-12 17:33N 41°02' E 002°51'9 8.8
2014-Apr-12 16:33N 40°55' E 002°43'8 8.2
2014-Apr-12 15:33N 40°49' E 002°36'8 8.2
2014-Apr-12 14:33N 40°43' E 002°29'8 7.8
2014-Apr-12 13:32N 40°37' E 002°22'7 7.4
2014-Apr-12 12:33N 40°32' E 002°16'7 7.1
2014-Apr-12 11:33N 40°26' E 002°09'7 7.0
2014-Apr-12 10:33N 40°21' E 002°04'8 7.8
2014-Apr-12 09:33N 40°15' E 001°57'8 8.1
2014-Apr-12 08:33N 40°08' E 001°51'9 8.3
2014-Apr-12 07:24N 40°02' E 001°42'8 8.7
2014-Apr-12 06:33N 39°56' E 001°35'9 8.8
2014-Apr-12 05:33N 39°50' E 001°28'9 8.7
2014-Apr-12 04:33N 39°43' E 001°20'  
2014-Apr-09 06:20N 37°59' W 000°16'20 7.3
2014-Apr-09 03:33N 37°40' W 000°07'6 6.2
2014-Apr-09 02:33N 37°34' W 000°05'4 4.2
2014-Apr-09 01:33N 37°31' W 000°02'4 1.7
2014-Apr-08 23:26N 37°34' W 000°01'1 1.3
2014-Apr-08 22:28N 37°35' W 000°00'3 0.8
2014-Apr-08 18:33N 37°38' E 000°02'1 0.8
2014-Apr-08 17:32N 37°38' E 000°03'3 0.8
2014-Apr-08 14:19N 37°39' E 000°06'1 0.7
2014-Apr-08 13:29N 37°39' E 000°07'0 0.4
2014-Apr-08 12:25N 37°40' E 000°07'12 0.4
2014-Apr-07 09:12N 37°35' E 000°21'12 3.2
2014-Apr-07 05:30N 37°28' E 000°09'  

Dump ship's entire track history

sailing weather and tide predictions

Sedov — UELO — position and weather